sensor_id;sensor_type;location;lat;lon;timestamp;temperature;humidity
7900;DHT22;3995;50.856;4.404;2022-07-17T00:00:37;24.40;40.00
7900;DHT22;3995;50.856;4.404;2022-07-17T00:03:07;24.40;40.10
7900;DHT22;3995;50.856;4.404;2022-07-17T00:05:35;24.40;40.10
7900;DHT22;3995;50.856;4.404;2022-07-17T00:08:04;24.40;40.30
7900;DHT22;3995;50.856;4.404;2022-07-17T00:10:31;24.40;40.30
7900;DHT22;3995;50.856;4.404;2022-07-17T00:12:59;24.40;40.40
7900;DHT22;3995;50.856;4.404;2022-07-17T00:15:26;24.30;40.30
7900;DHT22;3995;50.856;4.404;2022-07-17T00:17:54;24.30;41.00
7900;DHT22;3995;50.856;4.404;2022-07-17T00:20:21;24.30;40.50
7900;DHT22;3995;50.856;4.404;2022-07-17T00:22:50;24.30;40.60
7900;DHT22;3995;50.856;4.404;2022-07-17T00:25:19;24.30;40.70
7900;DHT22;3995;50.856;4.404;2022-07-17T00:27:46;24.20;40.70
7900;DHT22;3995;50.856;4.404;2022-07-17T00:30:13;24.20;40.80
7900;DHT22;3995;50.856;4.404;2022-07-17T00:32:42;24.20;40.90
7900;DHT22;3995;50.856;4.404;2022-07-17T00:35:10;24.20;41.00
7900;DHT22;3995;50.856;4.404;2022-07-17T00:37:38;24.20;41.10
7900;DHT22;3995;50.856;4.404;2022-07-17T00:40:08;24.20;41.20
7900;DHT22;3995;50.856;4.404;2022-07-17T00:42:38;24.10;41.20
7900;DHT22;3995;50.856;4.404;2022-07-17T00:45:06;24.10;41.30
7900;DHT22;3995;50.856;4.404;2022-07-17T00:47:33;24.10;41.30
7900;DHT22;3995;50.856;4.404;2022-07-17T00:50:10;24.10;41.40
7900;DHT22;3995;50.856;4.404;2022-07-17T00:52:37;24.10;41.40
7900;DHT22;3995;50.856;4.404;2022-07-17T00:55:05;24.00;41.40
7900;DHT22;3995;50.856;4.404;2022-07-17T00:57:33;24.00;41.40
7900;DHT22;3995;50.856;4.404;2022-07-17T01:00:04;24.00;41.40
7900;DHT22;3995;50.856;4.404;2022-07-17T01:02:35;24.00;41.40
7900;DHT22;3995;50.856;4.404;2022-07-17T01:05:02;24.00;41.40
7900;DHT22;3995;50.856;4.404;2022-07-17T01:07:30;23.90;41.40
7900;DHT22;3995;50.856;4.404;2022-07-17T01:09:57;23.90;41.40
7900;DHT22;3995;50.856;4.404;2022-07-17T01:12:24;23.90;41.50
7900;DHT22;3995;50.856;4.404;2022-07-17T01:14:52;23.90;41.50
7900;DHT22;3995;50.856;4.404;2022-07-17T01:17:20;23.90;41.50
7900;DHT22;3995;50.856;4.404;2022-07-17T01:19:48;23.90;41.60
7900;DHT22;3995;50.856;4.404;2022-07-17T01:22:16;23.90;41.60
7900;DHT22;3995;50.856;4.404;2022-07-17T01:24:44;23.90;41.70
7900;DHT22;3995;50.856;4.404;2022-07-17T01:27:11;23.80;41.60
7900;DHT22;3995;50.856;4.404;2022-07-17T01:29:39;23.90;41.80
7900;DHT22;3995;50.856;4.404;2022-07-17T01:32:06;23.80;41.80
7900;DHT22;3995;50.856;4.404;2022-07-17T01:34:33;23.80;41.90
7900;DHT22;3995;50.856;4.404;2022-07-17T01:37:00;23.80;42.00
7900;DHT22;3995;50.856;4.404;2022-07-17T01:39:28;23.80;42.00
7900;DHT22;3995;50.856;4.404;2022-07-17T01:42:13;23.80;41.90
7900;DHT22;3995;50.856;4.404;2022-07-17T01:44:41;23.80;42.00
7900;DHT22;3995;50.856;4.404;2022-07-17T01:47:08;23.80;42.10
7900;DHT22;3995;50.856;4.404;2022-07-17T01:49:35;23.80;42.00
7900;DHT22;3995;50.856;4.404;2022-07-17T01:52:03;23.80;42.00
7900;DHT22;3995;50.856;4.404;2022-07-17T01:54:32;23.80;42.10
7900;DHT22;3995;50.856;4.404;2022-07-17T01:56:59;23.80;42.10
7900;DHT22;3995;50.856;4.404;2022-07-17T01:59:26;23.80;42.30
7900;DHT22;3995;50.856;4.404;2022-07-17T02:01:53;23.70;42.20
7900;DHT22;3995;50.856;4.404;2022-07-17T02:04:21;23.70;42.20
7900;DHT22;3995;50.856;4.404;2022-07-17T02:06:48;23.70;42.20
7900;DHT22;3995;50.856;4.404;2022-07-17T02:09:15;23.60;42.20
7900;DHT22;3995;50.856;4.404;2022-07-17T02:11:43;23.60;42.30
7900;DHT22;3995;50.856;4.404;2022-07-17T02:14:10;23.60;42.30
7900;DHT22;3995;50.856;4.404;2022-07-17T02:16:38;23.60;42.30
7900;DHT22;3995;50.856;4.404;2022-07-17T02:19:05;23.60;42.40
7900;DHT22;3995;50.856;4.404;2022-07-17T02:21:32;23.60;42.40
7900;DHT22;3995;50.856;4.404;2022-07-17T02:24:00;23.60;42.40
7900;DHT22;3995;50.856;4.404;2022-07-17T02:26:27;23.50;42.40
7900;DHT22;3995;50.856;4.404;2022-07-17T02:28:55;23.50;42.50
7900;DHT22;3995;50.856;4.404;2022-07-17T02:31:23;23.50;42.50
7900;DHT22;3995;50.856;4.404;2022-07-17T02:33:50;23.50;42.60
7900;DHT22;3995;50.856;4.404;2022-07-17T02:36:17;23.50;42.60
7900;DHT22;3995;50.856;4.404;2022-07-17T02:38:44;23.40;42.60
7900;DHT22;3995;50.856;4.404;2022-07-17T02:41:11;23.40;42.70
7900;DHT22;3995;50.856;4.404;2022-07-17T02:43:39;23.40;42.80
7900;DHT22;3995;50.856;4.404;2022-07-17T02:46:08;23.40;42.80
7900;DHT22;3995;50.856;4.404;2022-07-17T02:48:35;23.40;42.80
7900;DHT22;3995;50.856;4.404;2022-07-17T02:51:02;23.30;42.80
7900;DHT22;3995;50.856;4.404;2022-07-17T02:53:29;23.30;42.80
7900;DHT22;3995;50.856;4.404;2022-07-17T02:55:57;23.30;42.80
7900;DHT22;3995;50.856;4.404;2022-07-17T02:58:24;23.30;42.90
7900;DHT22;3995;50.856;4.404;2022-07-17T03:00:52;23.30;43.00
7900;DHT22;3995;50.856;4.404;2022-07-17T03:03:21;23.30;43.10
7900;DHT22;3995;50.856;4.404;2022-07-17T03:05:48;23.30;43.00
7900;DHT22;3995;50.856;4.404;2022-07-17T03:08:16;23.30;43.10
7900;DHT22;3995;50.856;4.404;2022-07-17T03:10:43;23.30;43.10
7900;DHT22;3995;50.856;4.404;2022-07-17T03:13:10;23.20;43.10
7900;DHT22;3995;50.856;4.404;2022-07-17T03:15:37;23.20;43.00
7900;DHT22;3995;50.856;4.404;2022-07-17T03:18:05;23.20;43.00
7900;DHT22;3995;50.856;4.404;2022-07-17T03:20:33;23.20;43.10
7900;DHT22;3995;50.856;4.404;2022-07-17T03:23:01;23.20;43.10
7900;DHT22;3995;50.856;4.404;2022-07-17T03:25:28;23.10;43.10
7900;DHT22;3995;50.856;4.404;2022-07-17T03:27:55;23.10;43.20
7900;DHT22;3995;50.856;4.404;2022-07-17T03:30:23;23.10;43.20
7900;DHT22;3995;50.856;4.404;2022-07-17T03:32:50;23.10;43.30
7900;DHT22;3995;50.856;4.404;2022-07-17T03:35:16;23.10;43.30
7900;DHT22;3995;50.856;4.404;2022-07-17T03:37:45;23.00;43.20
7900;DHT22;3995;50.856;4.404;2022-07-17T03:40:13;23.00;43.30
7900;DHT22;3995;50.856;4.404;2022-07-17T03:42:40;23.00;43.40
7900;DHT22;3995;50.856;4.404;2022-07-17T03:45:08;23.00;43.60
7900;DHT22;3995;50.856;4.404;2022-07-17T03:47:35;23.00;43.50
7900;DHT22;3995;50.856;4.404;2022-07-17T03:50:03;22.90;43.50
7900;DHT22;3995;50.856;4.404;2022-07-17T03:52:30;22.90;43.50
7900;DHT22;3995;50.856;4.404;2022-07-17T03:54:58;22.90;43.70
7900;DHT22;3995;50.856;4.404;2022-07-17T03:57:25;22.90;43.80
7900;DHT22;3995;50.856;4.404;2022-07-17T03:59:53;22.90;43.90
7900;DHT22;3995;50.856;4.404;2022-07-17T04:02:20;22.80;43.90
7900;DHT22;3995;50.856;4.404;2022-07-17T04:04:47;22.80;43.90
7900;DHT22;3995;50.856;4.404;2022-07-17T04:07:15;22.80;43.90
7900;DHT22;3995;50.856;4.404;2022-07-17T04:09:55;22.80;43.90
7900;DHT22;3995;50.856;4.404;2022-07-17T04:12:24;22.80;44.00
7900;DHT22;3995;50.856;4.404;2022-07-17T04:14:51;22.80;44.10
7900;DHT22;3995;50.856;4.404;2022-07-17T04:17:18;22.80;44.10
7900;DHT22;3995;50.856;4.404;2022-07-17T04:19:46;22.70;44.10
7900;DHT22;3995;50.856;4.404;2022-07-17T04:22:13;22.70;44.10
7900;DHT22;3995;50.856;4.404;2022-07-17T04:24:41;22.70;44.10
7900;DHT22;3995;50.856;4.404;2022-07-17T04:27:08;22.70;44.10
7900;DHT22;3995;50.856;4.404;2022-07-17T04:29:37;22.70;44.20
7900;DHT22;3995;50.856;4.404;2022-07-17T04:32:05;22.60;44.10
7900;DHT22;3995;50.856;4.404;2022-07-17T04:34:32;22.60;44.00
7900;DHT22;3995;50.856;4.404;2022-07-17T04:37:00;22.60;44.00
7900;DHT22;3995;50.856;4.404;2022-07-17T04:39:27;22.60;44.00
7900;DHT22;3995;50.856;4.404;2022-07-17T04:41:55;22.60;44.00
7900;DHT22;3995;50.856;4.404;2022-07-17T04:44:22;22.60;44.10
7900;DHT22;3995;50.856;4.404;2022-07-17T04:46:50;22.60;44.10
7900;DHT22;3995;50.856;4.404;2022-07-17T04:49:17;22.60;43.90
7900;DHT22;3995;50.856;4.404;2022-07-17T04:51:44;22.60;43.90
7900;DHT22;3995;50.856;4.404;2022-07-17T04:54:14;22.60;44.00
7900;DHT22;3995;50.856;4.404;2022-07-17T04:56:41;22.60;43.90
7900;DHT22;3995;50.856;4.404;2022-07-17T04:59:08;22.50;43.90
7900;DHT22;3995;50.856;4.404;2022-07-17T05:01:35;22.50;43.90
7900;DHT22;3995;50.856;4.404;2022-07-17T05:04:04;22.50;43.90
7900;DHT22;3995;50.856;4.404;2022-07-17T05:06:31;22.50;43.90
7900;DHT22;3995;50.856;4.404;2022-07-17T05:08:58;22.50;43.90
7900;DHT22;3995;50.856;4.404;2022-07-17T05:11:26;22.50;44.00
7900;DHT22;3995;50.856;4.404;2022-07-17T05:13:53;22.50;44.00
7900;DHT22;3995;50.856;4.404;2022-07-17T05:16:21;22.50;44.00
7900;DHT22;3995;50.856;4.404;2022-07-17T05:18:48;22.50;44.10
7900;DHT22;3995;50.856;4.404;2022-07-17T05:21:17;22.50;44.10
7900;DHT22;3995;50.856;4.404;2022-07-17T05:23:47;22.50;44.30
7900;DHT22;3995;50.856;4.404;2022-07-17T05:26:14;22.60;44.30
7900;DHT22;3995;50.856;4.404;2022-07-17T05:28:41;22.50;44.00
7900;DHT22;3995;50.856;4.404;2022-07-17T05:31:08;22.50;44.00
7900;DHT22;3995;50.856;4.404;2022-07-17T05:33:35;22.60;44.10
7900;DHT22;3995;50.856;4.404;2022-07-17T05:36:03;22.60;43.90
7900;DHT22;3995;50.856;4.404;2022-07-17T05:38:32;22.60;43.90
7900;DHT22;3995;50.856;4.404;2022-07-17T05:40:59;22.60;43.80
7900;DHT22;3995;50.856;4.404;2022-07-17T05:43:27;22.70;43.80
7900;DHT22;3995;50.856;4.404;2022-07-17T05:45:54;22.70;43.80
7900;DHT22;3995;50.856;4.404;2022-07-17T05:48:22;22.70;43.90
7900;DHT22;3995;50.856;4.404;2022-07-17T05:50:49;22.70;43.90
7900;DHT22;3995;50.856;4.404;2022-07-17T05:53:17;22.70;43.80
7900;DHT22;3995;50.856;4.404;2022-07-17T05:55:45;22.70;43.70
7900;DHT22;3995;50.856;4.404;2022-07-17T05:58:13;22.80;43.70
7900;DHT22;3995;50.856;4.404;2022-07-17T06:00:40;22.80;43.60
7900;DHT22;3995;50.856;4.404;2022-07-17T06:03:07;22.80;43.60
7900;DHT22;3995;50.856;4.404;2022-07-17T06:05:34;22.80;43.60
7900;DHT22;3995;50.856;4.404;2022-07-17T06:08:01;22.80;43.60
7900;DHT22;3995;50.856;4.404;2022-07-17T06:10:29;22.90;43.70
7900;DHT22;3995;50.856;4.404;2022-07-17T06:12:58;22.90;43.70
7900;DHT22;3995;50.856;4.404;2022-07-17T06:15:26;22.90;43.50
7900;DHT22;3995;50.856;4.404;2022-07-17T06:17:53;22.90;43.40
7900;DHT22;3995;50.856;4.404;2022-07-17T06:20:21;22.90;43.40
7900;DHT22;3995;50.856;4.404;2022-07-17T06:22:48;22.90;43.40
7900;DHT22;3995;50.856;4.404;2022-07-17T06:25:15;23.00;43.40
7900;DHT22;3995;50.856;4.404;2022-07-17T06:27:43;23.00;43.30
7900;DHT22;3995;50.856;4.404;2022-07-17T06:30:14;23.00;43.40
7900;DHT22;3995;50.856;4.404;2022-07-17T06:32:42;23.00;43.50
7900;DHT22;3995;50.856;4.404;2022-07-17T06:35:10;23.00;43.30
7900;DHT22;3995;50.856;4.404;2022-07-17T06:37:38;23.00;43.10
7900;DHT22;3995;50.856;4.404;2022-07-17T06:40:06;23.10;43.30
7900;DHT22;3995;50.856;4.404;2022-07-17T06:42:33;23.10;43.40
7900;DHT22;3995;50.856;4.404;2022-07-17T06:45:01;23.20;43.50
7900;DHT22;3995;50.856;4.404;2022-07-17T06:47:30;23.20;43.40
7900;DHT22;3995;50.856;4.404;2022-07-17T06:49:56;23.30;43.40
7900;DHT22;3995;50.856;4.404;2022-07-17T06:52:24;23.30;43.30
7900;DHT22;3995;50.856;4.404;2022-07-17T06:54:51;23.30;43.20
7900;DHT22;3995;50.856;4.404;2022-07-17T06:57:18;23.30;43.20
7900;DHT22;3995;50.856;4.404;2022-07-17T06:59:46;23.30;43.80
7900;DHT22;3995;50.856;4.404;2022-07-17T07:02:13;23.40;43.30
7900;DHT22;3995;50.856;4.404;2022-07-17T07:04:42;23.40;43.30
7900;DHT22;3995;50.856;4.404;2022-07-17T07:07:10;23.40;43.30
7900;DHT22;3995;50.856;4.404;2022-07-17T07:09:37;23.40;43.30
7900;DHT22;3995;50.856;4.404;2022-07-17T07:12:04;23.50;43.40
7900;DHT22;3995;50.856;4.404;2022-07-17T07:14:32;23.50;43.20
7900;DHT22;3995;50.856;4.404;2022-07-17T07:16:59;23.50;43.20
7900;DHT22;3995;50.856;4.404;2022-07-17T07:19:27;23.50;43.10
7900;DHT22;3995;50.856;4.404;2022-07-17T07:21:56;23.50;43.10
7900;DHT22;3995;50.856;4.404;2022-07-17T07:24:23;23.50;43.00
7900;DHT22;3995;50.856;4.404;2022-07-17T07:26:51;23.50;42.90
7900;DHT22;3995;50.856;4.404;2022-07-17T07:29:18;23.50;43.00
7900;DHT22;3995;50.856;4.404;2022-07-17T07:31:45;23.50;42.40
7900;DHT22;3995;50.856;4.404;2022-07-17T07:34:13;23.60;42.40
7900;DHT22;3995;50.856;4.404;2022-07-17T07:36:40;23.60;42.40
7900;DHT22;3995;50.856;4.404;2022-07-17T07:39:08;23.60;42.20
7900;DHT22;3995;50.856;4.404;2022-07-17T07:41:36;23.60;42.40
7900;DHT22;3995;50.856;4.404;2022-07-17T07:44:03;23.60;42.60
7900;DHT22;3995;50.856;4.404;2022-07-17T07:46:31;23.70;42.80
7900;DHT22;3995;50.856;4.404;2022-07-17T07:48:59;23.70;42.70
7900;DHT22;3995;50.856;4.404;2022-07-17T07:51:27;23.80;42.80
7900;DHT22;3995;50.856;4.404;2022-07-17T07:53:54;23.80;42.30
7900;DHT22;3995;50.856;4.404;2022-07-17T07:56:23;23.80;42.10
7900;DHT22;3995;50.856;4.404;2022-07-17T07:58:51;23.90;42.10
7900;DHT22;3995;50.856;4.404;2022-07-17T08:01:18;23.80;42.30
7900;DHT22;3995;50.856;4.404;2022-07-17T08:03:45;23.90;42.80
7900;DHT22;3995;50.856;4.404;2022-07-17T08:06:13;23.90;43.00
7900;DHT22;3995;50.856;4.404;2022-07-17T08:08:41;23.90;42.80
7900;DHT22;3995;50.856;4.404;2022-07-17T08:11:08;23.90;42.80
7900;DHT22;3995;50.856;4.404;2022-07-17T08:13:38;23.90;42.60
7900;DHT22;3995;50.856;4.404;2022-07-17T08:16:06;23.90;42.60
7900;DHT22;3995;50.856;4.404;2022-07-17T08:18:33;23.90;42.60
7900;DHT22;3995;50.856;4.404;2022-07-17T08:21:01;23.90;42.50
7900;DHT22;3995;50.856;4.404;2022-07-17T08:23:28;23.90;42.20
7900;DHT22;3995;50.856;4.404;2022-07-17T08:25:56;23.90;41.90
7900;DHT22;3995;50.856;4.404;2022-07-17T08:28:23;23.90;41.80
7900;DHT22;3995;50.856;4.404;2022-07-17T08:30:52;24.00;42.10
7900;DHT22;3995;50.856;4.404;2022-07-17T08:33:19;24.00;42.30
7900;DHT22;3995;50.856;4.404;2022-07-17T08:35:47;24.00;42.10
7900;DHT22;3995;50.856;4.404;2022-07-17T08:38:15;24.00;42.10
7900;DHT22;3995;50.856;4.404;2022-07-17T08:40:42;24.00;42.20
7900;DHT22;3995;50.856;4.404;2022-07-17T08:43:13;24.10;42.30
7900;DHT22;3995;50.856;4.404;2022-07-17T08:45:40;24.10;42.10
7900;DHT22;3995;50.856;4.404;2022-07-17T08:48:12;24.10;42.00
7900;DHT22;3995;50.856;4.404;2022-07-17T08:50:39;24.20;41.50
7900;DHT22;3995;50.856;4.404;2022-07-17T08:53:07;24.10;41.00
7900;DHT22;3995;50.856;4.404;2022-07-17T08:55:35;24.20;40.80
7900;DHT22;3995;50.856;4.404;2022-07-17T08:58:02;24.20;40.60
7900;DHT22;3995;50.856;4.404;2022-07-17T09:00:30;24.20;40.40
7900;DHT22;3995;50.856;4.404;2022-07-17T09:02:59;24.20;40.50
7900;DHT22;3995;50.856;4.404;2022-07-17T09:05:30;24.20;40.80
7900;DHT22;3995;50.856;4.404;2022-07-17T09:07:58;24.20;40.80
7900;DHT22;3995;50.856;4.404;2022-07-17T09:10:34;24.30;40.80
7900;DHT22;3995;50.856;4.404;2022-07-17T09:13:12;24.30;40.70
7900;DHT22;3995;50.856;4.404;2022-07-17T09:15:39;24.30;41.10
7900;DHT22;3995;50.856;4.404;2022-07-17T09:18:07;24.30;41.20
7900;DHT22;3995;50.856;4.404;2022-07-17T09:20:38;24.30;41.10
7900;DHT22;3995;50.856;4.404;2022-07-17T09:23:09;24.40;41.20
7900;DHT22;3995;50.856;4.404;2022-07-17T09:25:38;24.40;41.20
7900;DHT22;3995;50.856;4.404;2022-07-17T09:28:08;24.40;40.60
7900;DHT22;3995;50.856;4.404;2022-07-17T09:30:40;24.40;40.60
7900;DHT22;3995;50.856;4.404;2022-07-17T09:33:11;24.40;41.10
7900;DHT22;3995;50.856;4.404;2022-07-17T09:35:46;24.40;40.30
7900;DHT22;3995;50.856;4.404;2022-07-17T09:38:25;24.50;40.40
7900;DHT22;3995;50.856;4.404;2022-07-17T09:41:04;24.50;39.90
7900;DHT22;3995;50.856;4.404;2022-07-17T09:43:40;24.50;39.80
7900;DHT22;3995;50.856;4.404;2022-07-17T09:46:12;24.50;40.10
7900;DHT22;3995;50.856;4.404;2022-07-17T09:48:42;24.50;40.30
7900;DHT22;3995;50.856;4.404;2022-07-17T09:51:16;24.50;39.80
7900;DHT22;3995;50.856;4.404;2022-07-17T09:53:45;24.50;39.90
7900;DHT22;3995;50.856;4.404;2022-07-17T09:56:15;24.60;40.20
7900;DHT22;3995;50.856;4.404;2022-07-17T09:58:44;24.60;40.40
7900;DHT22;3995;50.856;4.404;2022-07-17T10:01:13;24.60;40.70
7900;DHT22;3995;50.856;4.404;2022-07-17T10:03:41;24.70;40.50
7900;DHT22;3995;50.856;4.404;2022-07-17T10:06:09;24.70;40.20
7900;DHT22;3995;50.856;4.404;2022-07-17T10:08:39;24.70;40.20
7900;DHT22;3995;50.856;4.404;2022-07-17T10:11:06;24.70;40.20
7900;DHT22;3995;50.856;4.404;2022-07-17T10:13:35;24.70;40.30
7900;DHT22;3995;50.856;4.404;2022-07-17T10:16:04;24.80;40.40
7900;DHT22;3995;50.856;4.404;2022-07-17T10:18:35;24.80;40.50
7900;DHT22;3995;50.856;4.404;2022-07-17T10:21:13;24.90;40.30
7900;DHT22;3995;50.856;4.404;2022-07-17T10:23:42;24.90;39.80
7900;DHT22;3995;50.856;4.404;2022-07-17T10:26:10;24.90;39.80
7900;DHT22;3995;50.856;4.404;2022-07-17T10:31:09;24.90;39.30
7900;DHT22;3995;50.856;4.404;2022-07-17T10:33:37;24.90;39.40
7900;DHT22;3995;50.856;4.404;2022-07-17T10:36:04;24.90;39.60
7900;DHT22;3995;50.856;4.404;2022-07-17T10:38:42;24.90;39.80
7900;DHT22;3995;50.856;4.404;2022-07-17T10:41:19;25.00;40.10
7900;DHT22;3995;50.856;4.404;2022-07-17T10:43:48;25.00;39.90
7900;DHT22;3995;50.856;4.404;2022-07-17T10:46:15;25.00;39.80
7900;DHT22;3995;50.856;4.404;2022-07-17T10:48:47;25.00;39.40
7900;DHT22;3995;50.856;4.404;2022-07-17T10:51:15;25.10;39.20
7900;DHT22;3995;50.856;4.404;2022-07-17T10:53:44;25.00;38.90
7900;DHT22;3995;50.856;4.404;2022-07-17T10:56:11;25.10;39.40
7900;DHT22;3995;50.856;4.404;2022-07-17T10:58:40;25.10;39.60
7900;DHT22;3995;50.856;4.404;2022-07-17T11:01:10;25.10;39.70
7900;DHT22;3995;50.856;4.404;2022-07-17T11:03:40;25.20;40.10
7900;DHT22;3995;50.856;4.404;2022-07-17T11:06:11;25.20;40.10
7900;DHT22;3995;50.856;4.404;2022-07-17T11:08:49;25.20;40.10
7900;DHT22;3995;50.856;4.404;2022-07-17T11:11:17;25.30;40.00
7900;DHT22;3995;50.856;4.404;2022-07-17T11:13:45;25.20;39.90
7900;DHT22;3995;50.856;4.404;2022-07-17T11:16:22;25.30;40.10
7900;DHT22;3995;50.856;4.404;2022-07-17T11:18:50;25.30;39.90
7900;DHT22;3995;50.856;4.404;2022-07-17T11:21:18;25.30;39.90
7900;DHT22;3995;50.856;4.404;2022-07-17T11:23:53;25.30;39.80
7900;DHT22;3995;50.856;4.404;2022-07-17T11:26:20;25.40;40.10
7900;DHT22;3995;50.856;4.404;2022-07-17T11:28:48;25.40;39.70
7900;DHT22;3995;50.856;4.404;2022-07-17T11:31:19;25.40;40.00
7900;DHT22;3995;50.856;4.404;2022-07-17T11:33:48;25.50;40.40
7900;DHT22;3995;50.856;4.404;2022-07-17T11:36:25;25.50;40.00
7900;DHT22;3995;50.856;4.404;2022-07-17T11:38:56;25.70;40.20
7900;DHT22;3995;50.856;4.404;2022-07-17T11:41:32;25.70;40.10
7900;DHT22;3995;50.856;4.404;2022-07-17T11:44:00;25.70;39.70
7900;DHT22;3995;50.856;4.404;2022-07-17T11:46:28;25.70;39.90
7900;DHT22;3995;50.856;4.404;2022-07-17T11:48:56;25.80;39.50
7900;DHT22;3995;50.856;4.404;2022-07-17T11:51:36;25.90;40.20
7900;DHT22;3995;50.856;4.404;2022-07-17T11:54:07;26.00;40.00
7900;DHT22;3995;50.856;4.404;2022-07-17T11:56:35;26.20;39.60
7900;DHT22;3995;50.856;4.404;2022-07-17T11:59:02;26.60;38.70
7900;DHT22;3995;50.856;4.404;2022-07-17T12:01:38;27.10;36.70
7900;DHT22;3995;50.856;4.404;2022-07-17T12:04:08;27.40;37.00
7900;DHT22;3995;50.856;4.404;2022-07-17T12:06:35;28.00;36.70
7900;DHT22;3995;50.856;4.404;2022-07-17T12:09:03;28.50;36.70
7900;DHT22;3995;50.856;4.404;2022-07-17T12:11:32;28.70;35.80
7900;DHT22;3995;50.856;4.404;2022-07-17T12:14:04;28.80;33.60
7900;DHT22;3995;50.856;4.404;2022-07-17T12:16:34;29.00;34.60
7900;DHT22;3995;50.856;4.404;2022-07-17T12:19:05;29.20;34.70
7900;DHT22;3995;50.856;4.404;2022-07-17T12:21:50;29.40;33.60
7900;DHT22;3995;50.856;4.404;2022-07-17T12:24:22;29.50;34.20
7900;DHT22;3995;50.856;4.404;2022-07-17T12:26:50;29.50;34.50
7900;DHT22;3995;50.856;4.404;2022-07-17T12:29:18;29.40;35.00
7900;DHT22;3995;50.856;4.404;2022-07-17T12:31:45;29.30;34.20
7900;DHT22;3995;50.856;4.404;2022-07-17T12:34:13;29.30;33.80
7900;DHT22;3995;50.856;4.404;2022-07-17T12:36:40;29.60;34.40
7900;DHT22;3995;50.856;4.404;2022-07-17T12:39:07;29.70;35.00
7900;DHT22;3995;50.856;4.404;2022-07-17T12:41:35;29.80;35.20
7900;DHT22;3995;50.856;4.404;2022-07-17T12:44:03;29.90;34.10
7900;DHT22;3995;50.856;4.404;2022-07-17T12:46:32;30.20;34.00
7900;DHT22;3995;50.856;4.404;2022-07-17T12:48:59;30.60;33.90
7900;DHT22;3995;50.856;4.404;2022-07-17T12:51:26;30.80;34.20
7900;DHT22;3995;50.856;4.404;2022-07-17T12:53:54;31.00;34.30
7900;DHT22;3995;50.856;4.404;2022-07-17T12:56:21;31.10;34.00
7900;DHT22;3995;50.856;4.404;2022-07-17T12:58:48;31.40;34.00
7900;DHT22;3995;50.856;4.404;2022-07-17T13:01:17;31.60;33.40
7900;DHT22;3995;50.856;4.404;2022-07-17T13:03:45;31.70;32.70
7900;DHT22;3995;50.856;4.404;2022-07-17T13:06:13;31.90;32.20
7900;DHT22;3995;50.856;4.404;2022-07-17T13:08:40;32.00;32.30
7900;DHT22;3995;50.856;4.404;2022-07-17T13:11:08;32.20;30.70
7900;DHT22;3995;50.856;4.404;2022-07-17T13:13:35;32.20;30.60
7900;DHT22;3995;50.856;4.404;2022-07-17T13:16:02;32.30;31.30
7900;DHT22;3995;50.856;4.404;2022-07-17T13:18:31;32.20;31.50
7900;DHT22;3995;50.856;4.404;2022-07-17T13:20:59;32.20;31.30
7900;DHT22;3995;50.856;4.404;2022-07-17T13:23:26;32.20;31.40
7900;DHT22;3995;50.856;4.404;2022-07-17T13:25:53;32.20;31.20
7900;DHT22;3995;50.856;4.404;2022-07-17T13:28:20;32.10;31.50
7900;DHT22;3995;50.856;4.404;2022-07-17T13:30:48;32.20;31.70
7900;DHT22;3995;50.856;4.404;2022-07-17T13:33:15;32.20;31.70
7900;DHT22;3995;50.856;4.404;2022-07-17T13:35:44;32.20;32.00
7900;DHT22;3995;50.856;4.404;2022-07-17T13:38:11;32.10;31.60
7900;DHT22;3995;50.856;4.404;2022-07-17T13:40:38;32.00;32.50
7900;DHT22;3995;50.856;4.404;2022-07-17T13:43:05;32.00;31.50
7900;DHT22;3995;50.856;4.404;2022-07-17T13:45:33;32.00;31.40
7900;DHT22;3995;50.856;4.404;2022-07-17T13:48:01;32.00;31.90
7900;DHT22;3995;50.856;4.404;2022-07-17T13:50:29;32.00;31.60
7900;DHT22;3995;50.856;4.404;2022-07-17T13:52:57;32.00;31.20
7900;DHT22;3995;50.856;4.404;2022-07-17T13:55:26;31.90;31.60
7900;DHT22;3995;50.856;4.404;2022-07-17T13:57:53;31.90;30.50
7900;DHT22;3995;50.856;4.404;2022-07-17T14:00:21;31.80;29.80
7900;DHT22;3995;50.856;4.404;2022-07-17T14:02:48;31.60;29.30
7900;DHT22;3995;50.856;4.404;2022-07-17T14:05:16;31.50;29.20
7900;DHT22;3995;50.856;4.404;2022-07-17T14:07:43;31.30;29.00
7900;DHT22;3995;50.856;4.404;2022-07-17T14:10:12;31.10;29.30
7900;DHT22;3995;50.856;4.404;2022-07-17T14:12:40;30.90;29.50
7900;DHT22;3995;50.856;4.404;2022-07-17T14:15:07;30.70;29.80
7900;DHT22;3995;50.856;4.404;2022-07-17T14:17:36;30.50;30.50
7900;DHT22;3995;50.856;4.404;2022-07-17T14:20:04;30.30;31.10
7900;DHT22;3995;50.856;4.404;2022-07-17T14:22:31;30.20;31.40
7900;DHT22;3995;50.856;4.404;2022-07-17T14:24:58;30.10;30.50
7900;DHT22;3995;50.856;4.404;2022-07-17T14:27:27;30.00;30.00
7900;DHT22;3995;50.856;4.404;2022-07-17T14:29:54;30.00;30.80
7900;DHT22;3995;50.856;4.404;2022-07-17T14:32:21;29.90;30.80
7900;DHT22;3995;50.856;4.404;2022-07-17T14:34:48;30.00;30.30
7900;DHT22;3995;50.856;4.404;2022-07-17T14:37:16;30.10;30.70
7900;DHT22;3995;50.856;4.404;2022-07-17T14:39:43;30.20;30.90
7900;DHT22;3995;50.856;4.404;2022-07-17T14:42:11;30.20;30.80
7900;DHT22;3995;50.856;4.404;2022-07-17T14:44:40;30.20;31.40
7900;DHT22;3995;50.856;4.404;2022-07-17T14:47:07;30.20;30.60
7900;DHT22;3995;50.856;4.404;2022-07-17T14:49:34;30.20;30.20
7900;DHT22;3995;50.856;4.404;2022-07-17T14:52:02;30.30;30.30
7900;DHT22;3995;50.856;4.404;2022-07-17T14:54:29;30.40;30.10
7900;DHT22;3995;50.856;4.404;2022-07-17T14:56:57;30.40;30.50
7900;DHT22;3995;50.856;4.404;2022-07-17T14:59:25;30.50;30.70
7900;DHT22;3995;50.856;4.404;2022-07-17T15:01:54;30.50;31.10
7900;DHT22;3995;50.856;4.404;2022-07-17T15:04:21;30.50;31.00
7900;DHT22;3995;50.856;4.404;2022-07-17T15:06:48;30.50;30.50
7900;DHT22;3995;50.856;4.404;2022-07-17T15:09:16;30.60;30.40
7900;DHT22;3995;50.856;4.404;2022-07-17T15:11:43;30.70;30.60
7900;DHT22;3995;50.856;4.404;2022-07-17T15:14:10;30.70;31.00
7900;DHT22;3995;50.856;4.404;2022-07-17T15:16:38;30.80;31.30
7900;DHT22;3995;50.856;4.404;2022-07-17T15:19:07;30.80;30.70
7900;DHT22;3995;50.856;4.404;2022-07-17T15:21:34;30.80;30.50
7900;DHT22;3995;50.856;4.404;2022-07-17T15:24:02;30.80;29.80
7900;DHT22;3995;50.856;4.404;2022-07-17T15:26:29;30.90;29.60
7900;DHT22;3995;50.856;4.404;2022-07-17T15:28:57;31.00;30.00
7900;DHT22;3995;50.856;4.404;2022-07-17T15:31:24;30.90;30.60
7900;DHT22;3995;50.856;4.404;2022-07-17T15:33:51;30.90;30.00
7900;DHT22;3995;50.856;4.404;2022-07-17T15:36:20;30.90;29.90
7900;DHT22;3995;50.856;4.404;2022-07-17T15:38:53;30.90;29.60
7900;DHT22;3995;50.856;4.404;2022-07-17T15:41:21;30.80;29.40
7900;DHT22;3995;50.856;4.404;2022-07-17T15:43:48;30.70;29.00
7900;DHT22;3995;50.856;4.404;2022-07-17T15:46:15;30.70;29.10
7900;DHT22;3995;50.856;4.404;2022-07-17T15:48:42;30.60;29.20
7900;DHT22;3995;50.856;4.404;2022-07-17T15:51:09;30.50;29.90
7900;DHT22;3995;50.856;4.404;2022-07-17T15:53:39;30.40;30.00
7900;DHT22;3995;50.856;4.404;2022-07-17T15:56:06;30.40;29.80
7900;DHT22;3995;50.856;4.404;2022-07-17T15:58:33;30.40;29.50
7900;DHT22;3995;50.856;4.404;2022-07-17T16:01:15;30.40;29.40
7900;DHT22;3995;50.856;4.404;2022-07-17T16:03:55;30.40;30.40
7900;DHT22;3995;50.856;4.404;2022-07-17T16:06:23;30.40;30.10
7900;DHT22;3995;50.856;4.404;2022-07-17T16:08:51;30.40;30.00
7900;DHT22;3995;50.856;4.404;2022-07-17T16:11:18;30.40;30.10